• Join FlightAware (Why Join?)
  • Login
  • US Flag 
01:37AM EDT


 

Airport Tracker/Info


-or-


 

Live Flight TrackerFlight Track Log ✈ N17773 ✈ 02-Mar-2013 ✈ KORD - KORD

Flight Track Log - Related Links

Times and Time Zones

All times are in EST time to prevent confusion due to time zone crossing. See the N17773 flight status page for this flight to view local times or setup timezone preferences in your user account.

Time Position Orientation Groundspeed Altitude Reporting Facility
EST Latitude Longitude Course Direction KTS MPH feet Rate Location/Type
12:33AM 41.9833 -87.9500 270° West 159 183 2,000  Level Chicago TRACON
12:34AM 41.9833 -88.0167 270° West 205 236 3,500 1,380 Climbing Chicago TRACON
12:35AM 41.9167 -88.0500 200° South 264 304 4,800 1,680 Climbing Chicago TRACON
12:36AM 41.8592 -88.0472 178° South 264 304 6,700 1,980 Climbing Chicago Center
12:37AM 41.7825 -88.0394 176° South 275 316 8,600 1,560 Climbing Chicago Center
12:38AM 41.7053 -88.0064 162° South 292 336 9,900 360 Climbing Chicago Center
12:39AM 41.6456 -87.9425 141° Southeast 309 356 9,400 -960 Descending Chicago Center
12:40AM 41.6881 -87.8661 53° Northeast 265 305 8,000 -1,500 Descending Chicago Center
12:41AM 41.7444 -87.8097 37° Northeast 255 293 6,500 -1,320 Descending Chicago Center
12:42AM 41.7992 -87.7569 36° Northeast 245 282 5,400 -780 Descending Chicago Center
12:43AM 41.8514 -87.7039 37° Northeast 240 276 5,000 -600 Descending Chicago Center
12:44AM 41.9097 -87.6875 12° North 230 265 4,200 -900 Descending Chicago Center
12:45AM 41.9622 -87.7169 337° Northwest 215 247 3,300 -960 Descending Chicago Center
12:46AM 41.9694 -87.7856 278° West 202 232 2,300 -960 Descending Chicago Center
12:47AM 41.9700 -87.8425 271° West 175 201 1,400 -960 Descending Chicago Center
12:47AM 41.9667 -87.8667 259° West 141 162 900 -1,020 Descending Chicago TRACON
12:50AM 41.9667 -87.9000 277° West  Level FlightAware Approximate
12:57AM 41.9817 -87.9067 277° West  Level Estimated
12:58AM 41.9817 -87.9067 277° West  Level Estimated
12:59AM 41.9817 -87.9067 277° West  Level Estimated
01:00AM 41.9817 -87.9067 277° West  Level Estimated
01:01AM 41.9817 -87.9067 277° West  Level Estimated
01:02AM 41.9817 -87.9067 277° West  Level Estimated
01:03AM 41.9817 -87.9067 277° West  Level Estimated
01:04AM 41.9817 -87.9067 277° West  Level Estimated